Latest Weather Observations for Maria Island

IDT60801

Issued at 9:01 pm EDT Saturday 23 October 2021 (issued every 10 minutes, with the page automatically refreshed every 10 minutes)

About weather observations | Map of weather stations | Latest weather observations for TAS | Other Formats
Station Details ID: 092124 Name: MARIA ISLAND (POINT LESUEUR) Lat: -42.66 Lon: 148.02 Height: 28.0 m
Data from the previous 72 hours. | See also: Recent months at Maria Island
Date/Time
EDT
Temp
°C
App
Temp
°C
Dew
Point
°C
Rel
Hum
%
Delta-T
°C
Wind Press
QNH
hPa
Press
MSL
hPa
Rain since
9am
mm
Dir  Spd
km/h
Gust
km/h
Spd
kts
Gust
kts
23/09:00pm 11.2 5.5 11.2 100 0.0 S 32 37 17 20 1012.7 1012.7 13.0
23/08:30pm 11.0 5.1 11.0 100 0.0 S 33 39 18 21 1012.3 1012.3 12.0
23/08:00pm 10.8 4.4 10.8 100 0.0 SSW 35 43 19 23 1012.3 1012.3 11.0
23/07:30pm 10.9 4.2 10.9 100 0.0 SSW 37 43 20 23 1011.7 1011.7 10.2
23/07:00pm 11.1 5.4 11.1 100 0.0 SSW 32 37 17 20 1011.7 1011.7 9.2
23/06:30pm 10.9 4.2 10.9 100 0.0 SSW 37 43 20 23 1011.2 1011.2 9.0
23/06:00pm 10.9 4.9 10.9 100 0.0 SSW 33 37 18 20 1011.4 1011.4 8.8
23/05:30pm 11.0 5.6 11.0 100 0.0 S 30 33 16 18 1011.6 1011.6 8.8
23/05:00pm 10.7 5.2 10.7 100 0.0 S 30 33 16 18 1011.6 1011.6 8.6
23/04:30pm 11.1 6.1 11.1 100 0.0 S 28 33 15 18 1011.9 1011.9 8.2
23/04:00pm 10.9 7.4 10.9 100 0.0 SSW 20 24 11 13 1012.2 1012.2 7.2
23/03:30pm 11.0 6.8 11.0 100 0.0 S 24 32 13 17 1012.1 1012.1 6.0
23/03:00pm 10.9 6.6 10.9 100 0.0 S 24 28 13 15 1012.4 1012.4 5.8
23/02:30pm 10.6 6.3 10.6 100 0.0 S 24 28 13 15 1012.6 1012.6 5.2
23/02:00pm 10.4 3.9 10.4 100 0.0 S 35 41 19 22 1012.8 1012.8 4.8
23/01:30pm 10.2 2.5 10.2 100 0.0 SSW 41 44 22 24 1012.9 1012.9 4.4
23/01:00pm 10.6 3.8 10.6 100 0.0 SSW 37 43 20 23 1012.9 1012.9 3.8
23/12:30pm 10.7 6.4 10.7 100 0.0 S 24 28 13 15 1013.1 1013.1 3.0
23/12:00pm 10.8 5.8 10.8 100 0.0 SSW 28 32 15 17 1013.0 1013.0 2.8
23/11:30am 10.7 6.0 10.7 100 0.0 SSW 26 30 14 16 1013.2 1013.2 2.2
23/11:00am 10.6 5.1 10.6 100 0.0 SSW 30 33 16 18 1013.3 1013.3 2.0
23/10:30am 10.3 4.7 10.3 100 0.0 S 30 35 16 19 1013.4 1013.4 2.0
23/10:00am 11.1 7.3 11.1 100 0.0 SSE 22 28 12 15 1013.3 1013.3 1.2
23/09:30am 11.1 6.9 11.1 100 0.0 SSE 24 28 13 15 1013.4 1013.4 0.4
23/09:00am 11.0 7.2 11.0 100 0.0 SSE 22 26 12 14 1013.3 1013.3 11.2
23/08:30am 10.8 6.1 10.8 100 0.0 SSE 26 30 14 16 1013.2 1013.2 11.2
23/08:00am 11.1 6.9 11.1 100 0.0 SSE 24 30 13 16 1013.4 1013.4 10.0
23/07:30am 11.3 7.2 11.3 100 0.0 SSE 24 30 13 16 1013.0 1013.0 8.4
23/07:00am 11.4 7.3 11.4 100 0.0 SSE 24 33 13 18 1012.6 1012.6 7.4
23/06:30am 11.6 10.4 11.6 100 0.0 ESE 9 15 5 8 1012.5 1012.5 6.8
23/06:00am 11.9 8.3 11.9 100 0.0 SSE 22 32 12 17 1012.4 1012.4 6.2
23/05:30am 13.2 13.1 13.2 100 0.0 N 6 7 3 4 1012.3 1012.3 5.2
23/05:00am 13.3 11.1 13.3 100 0.0 N 17 19 9 10 1012.1 1012.1 4.2
23/04:30am 13.3 10.7 13.3 100 0.0 N 19 20 10 11 1012.0 1012.0 3.2
23/04:00am 13.4 9.9 13.4 100 0.0 N 24 28 13 15 1012.2 1012.2 1.4
23/03:30am 13.5 8.9 13.5 100 0.0 N 30 33 16 18 1012.2 1012.2 0.4
23/03:00am 13.6 9.0 13.6 100 0.0 N 30 35 16 19 1012.3 1012.3 0.2
23/02:30am 13.6 8.7 13.6 100 0.0 N 32 35 17 19 1012.2 1012.2 0.0
23/02:00am 13.7 8.6 13.7 100 0.0 N 33 37 18 20 1012.3 1012.3 0.0
23/01:30am 13.9 9.4 13.9 100 0.0 N 30 35 16 19 1012.8 1012.8 0.0
23/01:00am 13.9 9.1 13.9 100 0.0 N 32 39 17 21 1012.7 1012.7 0.0
23/12:30am 14.0 9.2 14.0 100 0.0 N 32 43 17 23 1012.9 1012.9 0.0
23/12:00am 14.0 10.0 14.0 100 0.0 N 28 33 15 18 1013.2 1013.2 0.0
 
Date/Time
EDT
Temp
°C
App
Temp
°C
Dew
Point
°C
Rel
Hum
%
Delta-T
°C
Wind Press
QNH
hPa
Press
MSL
hPa
Rain since
9am
mm
Dir  Spd
km/h
Gust
km/h
Spd
kts
Gust
kts
22/11:30pm 14.2 9.5 14.2 100 0.0 N 32 37 17 20 1013.1 1013.1 0.0
22/11:00pm 14.1 8.8 14.1 100 0.0 N 35 41 19 22 1013.4 1013.4 0.0
22/10:30pm 14.1 9.1 14.1 100 0.0 N 33 39 18 21 1013.5 1013.5 0.0
22/10:00pm 14.2 8.5 14.2 100 0.0 N 37 44 20 24 1013.6 1013.6 0.0
22/09:30pm 14.3 8.6 14.3 100 0.0 N 37 43 20 23 1013.6 1013.6 0.0
22/09:00pm 14.3 10.0 14.3 100 0.0 N 30 33 16 18 1013.8 1013.8 0.0
22/08:30pm 14.6 9.1 14.6 100 0.0 N 37 44 20 24 1013.7 1013.7 0.0
22/08:00pm 14.5 9.3 14.5 100 0.0 N 35 43 19 23 1013.5 1013.5 0.0
22/07:30pm 14.7 10.5 14.7 100 0.0 N 30 43 16 23 1013.6 1013.6 0.0
22/07:00pm 14.6 11.5 14.6 100 0.0 N 24 30 13 16 1014.0 1014.0 0.0
22/06:30pm 14.6 9.4 14.6 100 0.0 N 35 41 19 22 1013.6 1013.6 0.0
22/06:00pm 14.8 8.9 14.8 100 0.0 N 39 46 21 25 1013.3 1013.3 0.0
22/05:30pm 14.9 9.1 14.9 100 0.0 N 39 50 21 27 1013.2 1013.2 0.0
22/05:00pm 14.9 9.8 14.9 100 0.0 N 35 48 19 26 1013.6 1013.6 0.0
22/04:30pm 14.8 10.7 14.8 100 0.0 N 30 41 16 22 1013.9 1013.9 0.0
22/04:00pm 15.1 10.0 14.8 98 0.2 N 35 48 19 26 1013.7 1013.7 0.0
22/03:30pm 15.5 9.2 14.7 95 0.5 N 41 52 22 28 1013.6 1013.6 0.0
22/03:00pm 15.8 7.7 14.5 92 0.7 N 50 61 27 33 1014.1 1014.1 0.0
22/02:30pm 15.7 8.1 14.7 94 0.6 N 48 63 26 34 1014.6 1014.6 0.0
22/02:00pm 16.0 8.1 15.0 94 0.6 N 50 61 27 33 1014.7 1014.7 0.0
22/01:45pm 16.2 8.7 15.1 93 0.6 N 48 69 26 37 1014.5 1014.5 0.0
22/01:30pm 16.2 8.4 15.1 93 0.6 N 50 65 27 35 1014.4 1014.4 0.0
22/01:22pm 16.3 9.0 15.5 95 0.5 N 48 69 26 37 1015.0 1015.0 0.0
22/01:00pm 16.0 8.5 15.0 94 0.6 N 48 63 26 34 1014.8 1014.8 0.0
22/12:50pm 16.1 8.4 15.5 96 0.3 N 50 69 27 37 1015.0 1015.0 0.0
22/12:30pm 16.0 7.4 15.0 94 0.6 N 54 69 29 37 1014.9 1014.9 0.0
22/12:03pm 15.9 7.3 15.1 95 0.5 N 54 76 29 41 1015.0 1015.0 0.0
22/12:00pm 16.0 7.0 15.0 94 0.6 N 56 70 30 38 1015.2 1015.2 0.0
22/11:30am 15.8 8.1 15.5 98 0.2 N 50 65 27 35 1015.6 1015.6 0.0
22/11:00am 15.7 8.7 15.4 98 0.2 N 46 54 25 29 1015.7 1015.7 0.0
22/10:30am 15.2 8.2 15.2 100 0.0 N 46 56 25 30 1016.0 1016.0 0.0
22/10:00am 14.9 7.8 14.9 100 0.0 N 46 59 25 32 1016.2 1016.2 0.0
22/09:30am 14.9 7.8 14.9 100 0.0 N 46 57 25 31 1016.2 1016.2 0.0
22/09:00am 14.8 6.9 14.8 100 0.0 N 50 65 27 35 1016.2 1016.2 0.0
22/08:30am 14.8 7.2 14.8 100 0.0 N 48 59 26 32 1016.1 1016.1 0.0
22/08:00am 14.8 8.0 14.8 100 0.0 N 44 56 24 30 1016.4 1016.4 0.0
22/07:30am 14.7 7.5 14.7 100 0.0 N 46 61 25 33 1016.1 1016.1 0.0
22/07:00am 14.5 6.1 14.5 100 0.0 N 52 65 28 35 1016.0 1016.0 0.0
22/06:30am 14.4 6.3 14.4 100 0.0 N 50 63 27 34 1015.7 1015.7 0.0
22/06:00am 14.3 6.9 14.3 100 0.0 N 46 57 25 31 1015.9 1015.9 0.0
22/05:30am 14.4 6.3 14.4 100 0.0 N 50 61 27 33 1015.8 1015.8 0.0
22/05:00am 14.4 5.9 14.4 100 0.0 N 52 61 28 33 1015.9 1015.9 0.0
22/04:30am 14.5 6.4 14.5 100 0.0 N 50 59 27 32 1015.8 1015.8 0.0
22/04:00am 14.4 7.1 14.4 100 0.0 N 46 56 25 30 1016.4 1016.4 0.0
22/03:30am 14.3 7.3 14.3 100 0.0 N 44 57 24 31 1016.5 1016.5 0.0
22/03:00am 14.5 8.2 14.5 100 0.0 N 41 54 22 29 1016.8 1016.8 0.0
22/02:30am 14.5 7.8 14.5 100 0.0 N 43 52 23 28 1016.9 1016.9 0.0
22/02:00am 14.5 8.2 14.5 100 0.0 N 41 54 22 29 1017.6 1017.6 0.0
22/01:30am 14.7 8.0 14.7 100 0.0 N 43 59 23 32 1017.5 1017.5 0.0
22/01:00am 14.7 7.1 14.7 100 0.0 N 48 57 26 31 1017.6 1017.6 0.0
22/12:30am 14.7 8.0 14.7 100 0.0 N 43 54 23 29 1018.2 1018.2 0.0
22/12:00am 14.8 8.6 14.8 100 0.0 N 41 52 22 28 1018.3 1018.3 0.0
 
Date/Time
EDT
Temp
°C
App
Temp
°C
Dew
Point
°C
Rel
Hum
%
Delta-T
°C
Wind Press
QNH
hPa
Press
MSL
hPa
Rain since
9am
mm
Dir  Spd
km/h
Gust
km/h
Spd
kts
Gust
kts
21/11:30pm 14.7 8.0 14.7 100 0.0 N 43 56 23 30 1018.1 1018.1 0.0
21/11:00pm 14.9 6.6 14.9 100 0.0 N 52 63 28 34 1017.7 1017.7 0.0
21/10:49pm 15.0 8.3 15.0 100 0.0 N 44 65 24 35 1017.7 1017.7 0.0
21/10:30pm 15.0 8.3 15.0 100 0.0 N 44 57 24 31 1017.9 1017.9 0.0
21/10:00pm 14.4 8.4 14.4 100 0.0 N 39 46 21 25 1018.1 1018.1 0.0
21/09:30pm 14.3 8.3 14.3 100 0.0 N 39 46 21 25 1018.1 1018.1 0.0
21/09:00pm 14.6 7.9 14.6 100 0.0 N 43 52 23 28 1017.9 1017.9 0.0
21/08:30pm 14.8 8.6 14.8 100 0.0 N 41 54 22 29 1017.4 1017.4 0.0
21/08:29pm 14.8 8.9 14.8 100 0.0 N 39 54 21 29 1017.5 1017.5 0.0
21/08:00pm 14.7 10.1 14.7 100 0.0 N 32 43 17 23 1017.5 1017.5 0.0
21/07:30pm 15.2 7.7 15.0 99 0.1 N 48 56 26 30 1016.1 1016.1 0.0
21/07:00pm 15.4 7.2 15.1 98 0.2 N 52 65 28 35 1016.0 1016.0 0.0
21/06:30pm 15.6 8.5 15.1 97 0.3 N 46 57 25 31 1015.8 1015.8 0.0
21/06:00pm 15.9 9.4 15.1 95 0.5 N 43 54 23 29 1015.8 1015.8 0.0
21/05:30pm 16.2 9.6 14.9 92 0.7 N 43 52 23 28 1015.6 1015.6 0.0
21/05:00pm 16.4 9.3 15.1 92 0.8 NNE 46 63 25 34 1015.4 1015.4 0.0
21/04:44pm 16.6 9.8 14.8 89 1.0 NNE 44 63 24 34 1014.8 1014.8 0.0
21/04:30pm 16.8 10.1 14.6 87 1.3 NNE 43 57 23 31 1015.0 1015.0 0.0
21/04:00pm 17.4 10.9 15.0 86 1.4 N 43 54 23 29 1015.4 1015.4 0.0
21/03:30pm 17.3 10.3 15.3 88 1.2 NNE 46 56 25 30 1015.2 1015.2 0.0
21/03:00pm 17.6 10.6 15.2 86 1.4 NNE 46 61 25 33 1015.6 1015.6 0.0
21/02:44pm 17.8 11.8 15.4 86 1.4 NNE 41 61 22 33 1015.9 1015.9 0.0
21/02:30pm 17.6 10.4 14.7 83 1.7 NNE 46 61 25 33 1015.9 1015.9 0.0
21/02:19pm 17.7 10.9 14.2 80 2.0 N 43 63 23 34 1015.6 1015.6 0.0
21/02:00pm 17.8 9.2 13.9 78 2.2 NNE 52 67 28 36 1015.8 1015.8 0.0
21/01:30pm 17.5 10.3 15.7 89 1.1 NNE 48 61 26 33 1016.4 1016.4 0.0
21/01:00pm 17.3 10.1 15.8 91 0.9 N 48 67 26 36 1016.2 1016.2 0.0
21/12:30pm 17.0 9.4 15.7 92 0.8 N 50 63 27 34 1016.8 1016.8 0.0
21/12:08pm 16.5 9.2 15.4 93 0.6 N 48 67 26 36 1017.0 1017.0 0.0
21/12:00pm 16.6 9.7 15.6 94 0.6 N 46 59 25 32 1017.2 1017.2 0.0
21/11:30am 16.1 9.2 15.6 97 0.3 N 46 57 25 31 1017.9 1017.9 0.0
21/11:20am 16.1 9.3 15.9 99 0.1 N 46 65 25 35 1018.0 1018.0 0.0
21/11:00am 15.9 9.0 15.7 99 0.1 N 46 61 25 33 1018.0 1018.0 0.0
21/10:30am 15.6 10.0 15.4 99 0.1 N 39 50 21 27 1019.0 1019.0 0.0
21/10:00am 15.4 10.5 15.4 100 0.0 N 35 48 19 26 1019.2 1019.2 0.0
21/09:30am 14.3 10.0 14.3 100 0.0 N 30 37 16 20 1019.3 1019.3 0.0
21/09:00am 14.3 9.6 14.3 100 0.0 N 32 39 17 21 1019.1 1019.1 0.0
21/08:30am 13.9 7.7 13.9 100 0.0 N 39 50 21 27 1018.9 1018.9 0.0
21/08:00am 13.9 8.5 13.9 100 0.0 N 35 44 19 24 1018.8 1018.8 0.0
21/07:30am 13.3 8.3 13.3 100 0.0 N 32 39 17 21 1018.9 1018.9 0.0
21/07:00am 13.0 7.3 13.0 100 0.0 N 35 41 19 22 1018.9 1018.9 0.0
21/06:30am 12.8 8.0 12.8 100 0.0 N 30 35 16 19 1018.9 1018.9 0.0
21/06:00am 12.7 6.9 12.7 100 0.0 N 35 41 19 22 1018.7 1018.7 0.0
21/05:30am 12.6 8.1 12.6 100 0.0 N 28 33 15 18 1019.0 1019.0 0.0
21/05:00am 12.7 7.3 12.7 100 0.0 N 33 39 18 21 1019.2 1019.2 0.0
21/04:30am 12.7 7.4 12.5 99 0.1 N 32 39 17 21 1019.5 1019.5 0.0
21/04:00am 12.6 7.1 12.0 96 0.3 N 32 44 17 24 1019.8 1019.8 0.0
21/03:30am 12.5 6.1 10.7 89 0.9 N 35 46 19 25 1019.8 1019.8 0.0
21/03:00am 12.8 5.8 10.0 83 1.4 N 37 54 20 29 1020.0 1020.0 0.0
21/02:53am 12.6 5.9 9.6 82 1.5 N 35 54 19 29 1020.1 1020.1 0.0
21/02:30am 12.7 5.1 9.2 79 1.8 N 39 46 21 25 1020.3 1020.3 0.0
21/02:00am 12.4 4.6 9.8 84 1.3 N 41 48 22 26 1020.4 1020.4 0.0
21/01:30am 12.6 5.5 11.0 90 0.8 N 39 54 21 29 1021.1 1021.1 0.0
21/01:22am 12.6 5.5 11.0 90 0.8 N 39 54 21 29 1021.0 1021.0 0.0
21/01:00am 12.1 7.8 12.1 100 0.0 N 26 33 14 18 1021.6 1021.6 0.0
21/12:30am 11.6 6.0 11.6 100 0.0 N 32 35 17 19 1022.0 1022.0 0.0
21/12:00am 11.6 6.0 11.6 100 0.0 N 32 37 17 20 1022.4 1022.4 0.0
 
Date/Time
EDT
Temp
°C
App
Temp
°C
Dew
Point
°C
Rel
Hum
%
Delta-T
°C
Wind Press
QNH
hPa
Press
MSL
hPa
Rain since
9am
mm
Dir  Spd
km/h
Gust
km/h
Spd
kts
Gust
kts
20/11:30pm 12.3 7.3 12.1 99 0.1 N 30 35 16 19 1022.5 1022.5 0.0
20/11:00pm 12.2 6.7 12.0 99 0.1 N 32 39 17 21 1022.7 1022.7 0.0
20/10:30pm 12.2 7.3 11.4 95 0.4 N 28 35 15 19 1023.2 1023.2 0.0
20/10:00pm 11.8 5.8 10.2 90 0.8 N 32 37 17 20 1023.5 1023.5 0.0
20/09:30pm 11.6 6.2 9.5 87 1.1 N 28 33 15 18 1023.8 1023.8 0.0

Other formats

Comma delimited format used in spreadsheet applications
http://www.bom.gov.au/fwo/IDT60801/IDT60801.95988.axf

JavaScript Object Notation format (JSON) in row-major order
http://www.bom.gov.au/fwo/IDT60801/IDT60801.95988.json

Data quality

Most of these data are generated automatically and are frequently updated. Quality checks on data are not normally performed. It is possible for incorrect values to appear. Refer to information at About Latest Weather Observations and please check the disclaimer before using these data.